createdAt,value
2022-12-24T00:02:22.907Z,10.00
2022-12-24T00:04:53.009Z,10.00
2022-12-24T00:07:23.718Z,9.90
2022-12-24T00:09:51.051Z,9.90
2022-12-24T00:12:17.699Z,9.90
2022-12-24T00:14:44.959Z,9.80
2022-12-24T00:17:11.734Z,9.80
2022-12-24T00:19:39.023Z,9.80
2022-12-24T00:22:05.693Z,9.70
2022-12-24T00:24:32.943Z,9.60
2022-12-24T00:26:59.663Z,9.50
2022-12-24T00:29:26.974Z,9.40
2022-12-24T00:31:53.595Z,9.30
2022-12-24T00:34:23.649Z,9.30
2022-12-24T00:36:50.730Z,9.20
2022-12-24T00:39:17.744Z,9.20
2022-12-24T00:41:44.414Z,9.10
2022-12-24T00:44:12.230Z,9.10
2022-12-24T00:46:40.947Z,9.10
2022-12-24T00:49:09.079Z,9.10
2022-12-24T00:51:36.927Z,9.10
2022-12-24T00:54:04.951Z,9.10
2022-12-24T00:56:31.944Z,9.10
2022-12-24T00:58:59.234Z,9.10
2022-12-24T01:01:26.460Z,9.10
2022-12-24T01:04:14.070Z,9.20
2022-12-24T01:06:40.792Z,9.20
2022-12-24T01:09:08.059Z,9.30
2022-12-24T01:11:34.696Z,9.30
2022-12-24T01:14:01.999Z,9.30
2022-12-24T01:16:29.009Z,9.30
2022-12-24T01:18:56.094Z,9.20
2022-12-24T01:21:22.694Z,9.20
2022-12-24T01:23:49.969Z,9.10
2022-12-24T01:26:16.681Z,9.20
2022-12-24T01:28:43.635Z,9.30
2022-12-24T01:31:15.571Z,9.30
2022-12-24T01:33:43.610Z,9.30
2022-12-24T01:36:10.916Z,9.30
2022-12-24T01:38:38.668Z,9.30
2022-12-24T01:41:24.527Z,9.20
2022-12-24T01:43:51.843Z,9.20
2022-12-24T01:46:24.881Z,9.20
2022-12-24T01:49:01.527Z,9.20
2022-12-24T01:51:37.609Z,9.10
2022-12-24T01:54:10.180Z,9.00
2022-12-24T01:56:40.583Z,8.90
2022-12-24T01:59:13.220Z,8.90
2022-12-24T02:01:40.030Z,8.80
2022-12-24T02:04:37.062Z,8.70
2022-12-24T02:07:04.320Z,8.70
2022-12-24T02:09:32.526Z,8.70
2022-12-24T02:12:00.035Z,8.60
2022-12-24T02:14:29.486Z,8.60
2022-12-24T02:17:01.037Z,8.70
2022-12-24T02:19:51.911Z,8.60
2022-12-24T02:22:31.730Z,8.60
2022-12-24T02:25:29.629Z,8.60
2022-12-24T02:28:16.997Z,8.60
2022-12-24T02:30:53.377Z,8.50
2022-12-24T02:42:06.908Z,8.50
2022-12-24T02:44:50.609Z,8.50
2022-12-24T02:47:20.823Z,8.60
2022-12-24T02:49:49.685Z,8.60
2022-12-24T02:52:36.199Z,8.60
2022-12-24T02:55:17.624Z,8.60
2022-12-24T02:58:10.039Z,8.60
2022-12-24T03:01:26.082Z,8.70
2022-12-24T03:04:16.226Z,8.70
2022-12-24T03:07:05.964Z,8.80
2022-12-24T03:09:53.333Z,8.90
2022-12-24T03:12:28.041Z,8.90
2022-12-24T03:14:55.753Z,8.90
2022-12-24T03:17:22.379Z,9.00
2022-12-24T03:19:50.871Z,9.00
2022-12-24T03:22:18.555Z,9.10
2022-12-24T03:24:45.967Z,9.20
2022-12-24T03:27:14.264Z,9.20
2022-12-24T03:29:42.188Z,9.20
2022-12-24T03:32:09.245Z,9.10
2022-12-24T03:34:36.811Z,9.10
2022-12-24T03:37:03.823Z,9.10
2022-12-24T03:39:37.926Z,9.10
2022-12-24T03:42:04.648Z,9.00
2022-12-24T03:44:32.013Z,9.00
2022-12-24T03:46:58.695Z,9.00
2022-12-24T03:49:26.516Z,9.00
2022-12-24T03:51:53.243Z,9.00
2022-12-24T03:54:20.772Z,9.00
2022-12-24T03:56:48.017Z,9.00
2022-12-24T03:59:15.430Z,9.00
2022-12-24T04:01:42.438Z,9.10
2022-12-24T04:04:10.244Z,9.10
2022-12-24T04:06:40.945Z,9.20
2022-12-24T04:09:11.711Z,9.20
2022-12-24T04:11:38.764Z,9.10
2022-12-24T04:14:06.190Z,9.20
2022-12-24T04:16:33.020Z,9.20
2022-12-24T04:19:00.418Z,9.30
2022-12-24T04:21:27.245Z,9.20
2022-12-24T04:23:54.747Z,9.30
2022-12-24T04:26:21.736Z,9.30
2022-12-24T04:28:48.753Z,9.30
2022-12-24T04:31:17.504Z,9.30
2022-12-24T04:33:45.775Z,9.30
2022-12-24T04:36:17.131Z,9.20
2022-12-24T04:38:53.805Z,9.20
2022-12-24T04:41:24.621Z,9.20
2022-12-24T04:43:54.709Z,9.20
2022-12-24T04:46:24.145Z,9.20
2022-12-24T04:48:53.228Z,9.20
2022-12-24T04:51:20.638Z,9.20
2022-12-24T04:53:51.953Z,9.20
2022-12-24T04:56:23.718Z,9.20
2022-12-24T04:58:54.116Z,9.20
2022-12-24T05:01:26.820Z,9.20
2022-12-24T05:03:54.815Z,9.20
2022-12-24T05:06:29.364Z,9.20
2022-12-24T05:08:58.688Z,9.20
2022-12-24T05:11:25.706Z,9.20
2022-12-24T05:13:53.305Z,9.30
2022-12-24T05:16:22.109Z,9.30
2022-12-24T05:18:49.814Z,9.20
2022-12-24T05:21:19.320Z,9.30
2022-12-24T05:24:05.360Z,9.30
2022-12-24T05:26:40.834Z,9.30
2022-12-24T05:29:08.969Z,9.30
2022-12-24T05:31:36.577Z,9.30
2022-12-24T05:34:03.912Z,9.30
2022-12-24T05:36:30.928Z,9.30
2022-12-24T05:38:58.637Z,9.20
2022-12-24T05:41:26.002Z,9.20
2022-12-24T05:43:53.406Z,9.20
2022-12-24T05:46:21.938Z,9.20
2022-12-24T05:48:55.054Z,9.20
2022-12-24T05:51:22.541Z,9.20
2022-12-24T05:53:50.718Z,9.10
2022-12-24T05:59:49.387Z,9.00
2022-12-24T06:02:16.469Z,8.90
2022-12-24T06:04:43.702Z,8.90
2022-12-24T06:07:11.867Z,8.90
2022-12-24T06:09:40.352Z,8.90
2022-12-24T06:12:08.108Z,8.90
2022-12-24T06:14:34.745Z,8.90
2022-12-24T06:17:02.157Z,9.00
2022-12-24T06:19:28.831Z,9.00
2022-12-24T06:21:56.178Z,9.00
2022-12-24T06:24:31.765Z,9.00
2022-12-24T06:26:59.333Z,9.00
2022-12-24T06:29:27.465Z,9.00
2022-12-24T06:31:55.044Z,9.00
2022-12-24T06:34:28.176Z,9.00
2022-12-24T06:36:59.059Z,8.90
2022-12-24T06:39:30.104Z,8.90
2022-12-24T06:42:01.525Z,8.80
2022-12-24T06:44:29.937Z,8.80
2022-12-24T06:46:57.776Z,8.70
2022-12-24T06:49:31.803Z,8.70
2022-12-24T06:52:00.130Z,8.80
2022-12-24T06:54:27.261Z,8.80
2022-12-24T06:56:57.603Z,8.80
2022-12-24T06:59:24.727Z,8.80
2022-12-24T07:01:52.198Z,8.70
2022-12-24T07:04:20.603Z,8.70
2022-12-24T07:06:48.277Z,8.70
2022-12-24T07:09:15.031Z,8.60
2022-12-24T07:11:42.418Z,8.60
2022-12-24T07:14:09.076Z,8.50
2022-12-24T07:16:36.196Z,8.50
2022-12-24T07:19:03.875Z,8.50
2022-12-24T07:21:30.652Z,8.50
2022-12-24T07:23:58.066Z,8.40
2022-12-24T07:26:24.800Z,8.40
2022-12-24T07:28:52.310Z,8.40
2022-12-24T07:31:19.034Z,8.40
2022-12-24T07:33:46.429Z,8.30
2022-12-24T07:36:19.566Z,8.30
2022-12-24T07:38:47.683Z,8.40
2022-12-24T07:41:14.857Z,8.30
2022-12-24T07:43:42.335Z,8.40
2022-12-24T07:46:10.254Z,8.40
2022-12-24T07:48:39.972Z,8.40
2022-12-24T07:51:07.170Z,8.40
2022-12-24T07:53:34.890Z,8.40
2022-12-24T07:56:08.973Z,8.40
2022-12-24T07:58:42.775Z,8.40
2022-12-24T08:01:11.767Z,8.50
2022-12-24T08:03:44.054Z,8.50
2022-12-24T08:06:21.465Z,8.50
2022-12-24T08:08:51.286Z,8.50
2022-12-24T08:11:20.806Z,8.50
2022-12-24T08:13:49.303Z,8.60
2022-12-24T08:16:18.383Z,8.60
2022-12-24T08:18:56.551Z,8.60
2022-12-24T08:21:23.938Z,8.70
2022-12-24T08:23:51.669Z,8.80
2022-12-24T08:26:18.598Z,8.80
2022-12-24T08:28:46.322Z,8.90
2022-12-24T08:31:15.902Z,9.00
2022-12-24T08:33:43.739Z,9.10
2022-12-24T08:36:10.817Z,9.10
2022-12-24T08:38:38.581Z,9.20
2022-12-24T08:41:06.061Z,9.20
2022-12-24T08:43:33.745Z,9.20
2022-12-24T08:46:05.543Z,9.30
2022-12-24T08:48:34.052Z,9.30
2022-12-24T08:51:02.524Z,9.40
2022-12-24T08:53:30.552Z,9.40
2022-12-24T08:56:09.454Z,9.40
2022-12-24T08:58:38.145Z,9.40
2022-12-24T09:01:16.976Z,9.30
2022-12-24T09:03:45.323Z,9.40
2022-12-24T09:06:12.402Z,9.40
2022-12-24T09:08:40.000Z,9.40
2022-12-24T09:11:10.883Z,9.40
2022-12-24T09:13:38.418Z,9.50
2022-12-24T09:16:05.898Z,9.40
2022-12-24T09:18:33.637Z,9.40
2022-12-24T09:21:05.774Z,9.40
2022-12-24T09:23:36.149Z,9.50
2022-12-24T09:26:06.996Z,9.50
2022-12-24T09:28:34.750Z,9.50
2022-12-24T09:31:04.187Z,9.50
2022-12-24T09:33:34.724Z,9.50
2022-12-24T09:36:02.363Z,9.60
2022-12-24T09:38:31.045Z,9.60
2022-12-24T09:41:01.169Z,9.60
2022-12-24T09:43:34.616Z,9.70
2022-12-24T09:46:17.427Z,9.70
2022-12-24T09:48:48.556Z,9.80
2022-12-24T09:51:39.125Z,9.80
2022-12-24T09:54:17.360Z,9.90
2022-12-24T09:56:46.409Z,10.00
2022-12-24T09:59:21.990Z,10.00
2022-12-24T10:01:53.010Z,10.00
2022-12-24T10:04:23.744Z,10.10
2022-12-24T10:06:57.449Z,10.10
2022-12-24T10:09:53.844Z,10.20
2022-12-24T10:13:01.111Z,10.10
2022-12-24T10:15:30.858Z,10.10
2022-12-24T10:18:23.155Z,10.00
2022-12-24T10:21:02.653Z,10.10
2022-12-24T10:23:42.714Z,10.00
2022-12-24T10:26:29.967Z,9.90
2022-12-24T10:29:16.566Z,9.90
2022-12-24T10:32:01.156Z,9.90
2022-12-24T10:34:33.794Z,9.90
2022-12-24T10:37:03.245Z,10.00
2022-12-24T10:39:30.416Z,10.00
2022-12-24T10:42:00.917Z,10.00
2022-12-24T10:44:32.092Z,10.10
2022-12-24T10:47:00.127Z,10.10
2022-12-24T10:50:13.858Z,10.10
2022-12-24T10:52:44.932Z,10.10
2022-12-24T10:55:24.140Z,10.10
2022-12-24T10:58:02.765Z,10.10
2022-12-24T11:00:35.806Z,10.20
2022-12-24T11:03:25.768Z,10.40
2022-12-24T11:06:23.475Z,10.50
2022-12-24T11:09:12.493Z,10.60
2022-12-24T11:11:40.324Z,10.60
2022-12-24T11:14:16.695Z,10.70
2022-12-24T11:16:55.943Z,10.70
2022-12-24T11:19:40.998Z,10.70
2022-12-24T11:22:19.364Z,10.80
2022-12-24T11:24:50.090Z,10.80
2022-12-24T11:27:44.456Z,11.00
2022-12-24T11:30:17.265Z,11.30
2022-12-24T11:33:01.337Z,11.50
2022-12-24T11:35:30.110Z,11.70
2022-12-24T11:38:00.586Z,11.70
2022-12-24T11:40:58.218Z,11.60
2022-12-24T11:43:44.767Z,11.50
2022-12-24T11:46:18.910Z,11.40
2022-12-24T11:48:47.882Z,11.20
2022-12-24T11:51:25.249Z,11.20
2022-12-24T11:54:12.703Z,11.20
2022-12-24T11:56:46.486Z,11.20
2022-12-24T11:59:24.509Z,11.20
2022-12-24T12:02:23.941Z,11.30
2022-12-24T12:05:14.070Z,11.40
2022-12-24T12:07:44.789Z,11.60
2022-12-24T12:10:27.745Z,11.70
2022-12-24T12:12:58.169Z,11.80
2022-12-24T12:15:29.616Z,11.90
2022-12-24T12:18:34.852Z,12.00
2022-12-24T12:21:29.582Z,12.00
2022-12-24T12:24:07.901Z,12.00
2022-12-24T12:26:34.886Z,12.10
2022-12-24T12:29:15.221Z,12.10
2022-12-24T12:31:49.423Z,12.10
2022-12-24T12:34:45.823Z,12.10
2022-12-24T12:37:24.457Z,12.00
2022-12-24T12:39:55.572Z,12.00
2022-12-24T12:42:35.450Z,12.00
2022-12-24T12:45:30.920Z,12.00
2022-12-24T12:48:35.278Z,12.10
2022-12-24T12:51:14.952Z,12.20
2022-12-24T12:53:59.732Z,12.20
2022-12-24T12:56:40.088Z,12.20
2022-12-24T12:59:32.739Z,12.20
2022-12-24T13:02:25.916Z,12.20
2022-12-24T13:05:15.549Z,12.10
2022-12-24T13:08:04.207Z,12.00
2022-12-24T13:10:37.558Z,11.90
2022-12-24T13:13:45.398Z,11.80
2022-12-24T13:16:24.218Z,11.70
2022-12-24T13:19:26.432Z,11.60
2022-12-24T13:21:55.906Z,11.50
2022-12-24T13:24:26.290Z,11.40
2022-12-24T13:27:26.863Z,11.30
2022-12-24T13:29:59.943Z,11.20
2022-12-24T13:32:45.884Z,11.10
2022-12-24T13:35:19.447Z,11.10
2022-12-24T13:37:47.873Z,11.00
2022-12-24T13:40:23.045Z,11.00
2022-12-24T13:42:58.971Z,10.90
2022-12-24T13:45:29.515Z,10.90
2022-12-24T13:47:57.971Z,10.80
2022-12-24T13:50:42.074Z,10.80
2022-12-24T13:53:39.714Z,10.80
2022-12-24T13:56:12.649Z,10.70
2022-12-24T13:58:47.291Z,10.70
2022-12-24T14:01:36.862Z,10.60
2022-12-24T14:04:07.462Z,10.60
2022-12-24T14:06:38.900Z,10.60
2022-12-24T14:09:16.144Z,10.60
2022-12-24T14:12:01.647Z,10.60
2022-12-24T14:14:30.934Z,10.60
2022-12-24T14:17:01.153Z,10.50
2022-12-24T14:19:48.124Z,10.50
2022-12-24T14:22:38.454Z,10.50
2022-12-24T14:25:23.827Z,10.40
2022-12-24T14:27:58.793Z,10.30
2022-12-24T14:30:30.160Z,10.30
2022-12-24T14:32:57.850Z,10.20
2022-12-24T14:35:27.796Z,10.20
2022-12-24T14:38:18.918Z,10.20
2022-12-24T14:41:10.892Z,10.20
2022-12-24T14:44:16.438Z,10.20
2022-12-24T14:47:01.817Z,10.10
2022-12-24T14:49:52.342Z,10.10
2022-12-24T14:53:03.632Z,10.00
2022-12-24T14:55:40.946Z,9.90
2022-12-24T14:58:26.861Z,9.80
2022-12-24T15:01:02.237Z,9.70
2022-12-24T15:03:32.511Z,9.50
2022-12-24T15:06:05.247Z,9.50
2022-12-24T15:08:43.959Z,9.40
2022-12-24T15:11:16.541Z,9.30
2022-12-24T15:13:47.157Z,9.20
2022-12-24T15:16:21.666Z,9.10
2022-12-24T15:18:55.505Z,9.00
2022-12-24T15:21:33.515Z,8.90
2022-12-24T15:24:00.823Z,8.80
2022-12-24T15:26:30.600Z,8.70
2022-12-24T15:29:03.731Z,8.60
2022-12-24T15:31:32.032Z,8.50
2022-12-24T15:34:00.121Z,8.50
2022-12-24T15:36:34.844Z,8.40
2022-12-24T15:39:08.662Z,8.30
2022-12-24T15:42:02.355Z,8.20
2022-12-24T15:44:37.822Z,8.20
2022-12-24T15:47:07.753Z,8.10
2022-12-24T15:49:36.639Z,8.00
2022-12-24T15:52:12.409Z,7.90
2022-12-24T15:54:52.313Z,7.90
2022-12-24T15:57:22.841Z,7.80
2022-12-24T15:59:58.494Z,7.70
2022-12-24T16:02:25.457Z,7.70
2022-12-24T16:04:53.130Z,7.60
2022-12-24T16:07:47.347Z,7.60
2022-12-24T16:10:25.804Z,7.50
2022-12-24T16:12:53.049Z,7.50
2022-12-24T16:15:20.139Z,7.40
2022-12-24T16:17:49.455Z,7.40
2022-12-24T16:20:21.424Z,7.30
2022-12-24T16:22:49.881Z,7.30
2022-12-24T16:25:28.573Z,7.20
2022-12-24T16:28:00.819Z,7.20
2022-12-24T16:30:28.895Z,7.10
2022-12-24T16:32:55.563Z,7.10
2022-12-24T16:35:28.252Z,7.10
2022-12-24T16:37:55.652Z,7.10
2022-12-24T16:40:27.272Z,7.10
2022-12-24T16:43:14.099Z,7.10
2022-12-24T16:45:42.479Z,7.20
2022-12-24T16:48:09.271Z,7.20
2022-12-24T16:50:36.741Z,7.10
2022-12-24T16:53:03.463Z,7.10
2022-12-24T16:55:30.646Z,7.10
2022-12-24T16:57:57.317Z,7.10
2022-12-24T17:00:25.888Z,7.10
2022-12-24T17:02:53.587Z,7.00
2022-12-24T17:05:24.034Z,7.00
2022-12-24T17:07:51.082Z,6.80
2022-12-24T17:10:18.675Z,6.80
2022-12-24T17:12:45.409Z,6.70
2022-12-24T17:15:12.812Z,6.70
2022-12-24T17:17:39.673Z,6.70
2022-12-24T17:20:07.733Z,6.60
2022-12-24T17:22:35.418Z,6.60
2022-12-24T17:25:02.818Z,6.60
2022-12-24T17:27:29.788Z,6.60
2022-12-24T17:29:56.932Z,6.50
2022-12-24T17:32:25.920Z,6.50
2022-12-24T17:34:53.770Z,6.50
2022-12-24T17:37:20.470Z,6.40
2022-12-24T17:39:47.477Z,6.40
2022-12-24T17:42:14.185Z,6.40
2022-12-24T17:44:41.633Z,6.40
2022-12-24T17:47:08.415Z,6.40
2022-12-24T17:49:35.764Z,6.30
2022-12-24T17:52:04.546Z,6.30
2022-12-24T17:54:31.966Z,6.30
2022-12-24T17:56:58.708Z,6.30
2022-12-24T17:59:26.161Z,6.20
2022-12-24T18:01:52.937Z,6.20
2022-12-24T18:04:20.325Z,6.20
2022-12-24T18:06:49.512Z,6.10
2022-12-24T18:09:17.427Z,6.10
2022-12-24T18:11:44.345Z,6.10
2022-12-24T18:14:14.393Z,6.10
2022-12-24T18:16:41.795Z,6.20
2022-12-24T18:19:11.746Z,6.10
2022-12-24T18:21:38.897Z,6.10
2022-12-24T18:24:06.872Z,6.10
2022-12-24T18:26:33.668Z,6.10
2022-12-24T18:29:04.757Z,6.10
2022-12-24T18:31:33.670Z,6.00
2022-12-24T18:34:02.871Z,6.10
2022-12-24T18:36:29.821Z,6.00
2022-12-24T18:38:57.730Z,6.00
2022-12-24T18:41:27.407Z,6.00
2022-12-24T18:43:56.571Z,6.00
2022-12-24T18:46:26.583Z,6.10
2022-12-24T18:48:55.430Z,6.10
2022-12-24T18:51:23.489Z,6.20
2022-12-24T18:53:53.187Z,6.30
2022-12-24T18:56:24.027Z,6.40
2022-12-24T18:58:57.470Z,6.50
2022-12-24T19:01:30.504Z,6.50
2022-12-24T19:03:59.067Z,6.60
2022-12-24T19:06:27.023Z,6.60
2022-12-24T19:08:57.733Z,6.60
2022-12-24T19:11:26.953Z,6.70
2022-12-24T19:13:54.403Z,6.70
2022-12-24T19:16:22.496Z,6.70
2022-12-24T19:18:50.768Z,6.70
2022-12-24T19:21:18.645Z,6.70
2022-12-24T19:23:47.148Z,6.70
2022-12-24T19:26:16.249Z,6.80
2022-12-24T19:28:44.484Z,6.80
2022-12-24T19:31:16.353Z,6.80
2022-12-24T19:33:50.425Z,6.80
2022-12-24T19:36:23.541Z,6.80
2022-12-24T19:38:51.136Z,6.80
2022-12-24T19:41:21.202Z,6.90
2022-12-24T19:43:52.028Z,6.90
2022-12-24T19:46:24.052Z,7.00
2022-12-24T19:49:00.402Z,7.00
2022-12-24T19:51:31.497Z,7.00
2022-12-24T19:54:00.816Z,7.00
2022-12-24T19:56:32.962Z,7.10
2022-12-24T19:59:04.401Z,7.10
2022-12-24T20:01:36.027Z,7.10
2022-12-24T20:04:06.723Z,7.10
2022-12-24T20:06:35.736Z,7.10
2022-12-24T20:09:10.322Z,7.10
2022-12-24T20:11:41.599Z,7.10
2022-12-24T20:14:12.250Z,7.20
2022-12-24T20:16:40.672Z,7.20
2022-12-24T20:19:08.974Z,7.20
2022-12-24T20:21:47.499Z,7.10
2022-12-24T20:24:19.095Z,7.10
2022-12-24T20:26:51.586Z,7.10
2022-12-24T20:29:24.795Z,7.10
2022-12-24T20:31:57.280Z,7.10
2022-12-24T20:34:25.814Z,7.10
2022-12-24T20:36:55.170Z,7.10
2022-12-24T20:39:34.268Z,7.10
2022-12-24T20:42:03.206Z,7.10
2022-12-24T20:44:32.367Z,7.10
2022-12-24T20:46:59.105Z,7.10
2022-12-24T20:49:26.472Z,7.10
2022-12-24T20:51:53.184Z,7.10
2022-12-24T20:54:21.251Z,7.10
2022-12-24T20:56:57.538Z,7.10
2022-12-24T20:59:25.755Z,7.00
2022-12-24T21:01:53.343Z,7.00
2022-12-24T21:04:20.872Z,7.00
2022-12-24T21:06:47.660Z,7.00
2022-12-24T21:09:14.959Z,7.00
2022-12-24T21:11:50.781Z,7.10
2022-12-24T21:14:21.202Z,7.10
2022-12-24T21:16:49.300Z,7.20
2022-12-24T21:19:22.998Z,7.20
2022-12-24T21:21:49.845Z,7.30
2022-12-24T21:24:17.978Z,7.30
2022-12-24T21:26:45.043Z,7.30
2022-12-24T21:29:12.710Z,7.30
2022-12-24T21:31:39.411Z,7.30
2022-12-24T21:34:06.795Z,7.30
2022-12-24T21:36:33.442Z,7.30
2022-12-24T21:39:00.929Z,7.30
2022-12-24T21:41:27.935Z,7.30
2022-12-24T21:43:55.169Z,7.20
2022-12-24T21:46:25.615Z,7.20
2022-12-24T21:49:13.347Z,7.20
2022-12-24T21:51:41.153Z,7.20
2022-12-24T21:54:23.970Z,7.30
2022-12-24T21:57:11.215Z,7.30
2022-12-24T21:59:38.940Z,7.20
2022-12-24T22:02:05.865Z,7.20
2022-12-24T22:04:33.693Z,7.30
2022-12-24T22:07:18.842Z,7.20
2022-12-24T22:10:04.713Z,7.30
2022-12-24T22:12:32.919Z,7.20
2022-12-24T22:15:00.294Z,7.30
2022-12-24T22:17:28.447Z,7.20
2022-12-24T22:19:56.136Z,7.20
2022-12-24T22:22:23.471Z,7.20
2022-12-24T22:24:51.119Z,7.20
2022-12-24T22:27:17.796Z,7.20
2022-12-24T22:29:44.927Z,7.20
2022-12-24T22:32:11.643Z,7.20
2022-12-24T22:34:39.137Z,7.20
2022-12-24T22:37:06.033Z,7.20
2022-12-24T22:39:33.108Z,7.20
2022-12-24T22:41:59.758Z,7.10
2022-12-24T22:44:27.383Z,7.10
2022-12-24T22:46:54.032Z,7.20
2022-12-24T22:49:21.425Z,7.10
2022-12-24T22:51:48.216Z,7.10
2022-12-24T22:54:16.187Z,7.10
2022-12-24T22:56:43.008Z,7.10
2022-12-24T22:59:13.487Z,7.10
2022-12-24T23:01:43.465Z,7.10
2022-12-24T23:04:12.476Z,7.10
2022-12-24T23:06:40.037Z,7.10
2022-12-24T23:09:09.643Z,7.10
2022-12-24T23:11:36.524Z,7.20
2022-12-24T23:14:22.636Z,7.20
2022-12-24T23:16:49.517Z,7.20
2022-12-24T23:19:17.161Z,7.10
2022-12-24T23:21:43.993Z,7.10
2022-12-24T23:24:11.403Z,7.00
2022-12-24T23:26:39.099Z,6.90
2022-12-24T23:29:06.481Z,6.90
2022-12-24T23:31:35.177Z,6.80
2022-12-24T23:34:01.949Z,6.80
2022-12-24T23:36:29.482Z,6.80
2022-12-24T23:38:57.433Z,6.80
2022-12-24T23:41:24.438Z,6.80
2022-12-24T23:43:51.135Z,6.80
2022-12-24T23:46:19.628Z,6.80
2022-12-24T23:48:46.671Z,6.80
2022-12-24T23:51:17.532Z,6.80
2022-12-24T23:53:44.485Z,6.80
2022-12-24T23:56:12.606Z,6.80
2022-12-24T23:58:41.266Z,6.80
